Time;durP1;ratioP1;P1;durP2;ratioP2;P2;SDS_P1;SDS_P2;PMS_P1;PMS_P2;Temp;Humidity;BMP_temperature;BMP_pressure;BME280_temperature;BME280_humidity;BME280_pressure;Samples;Min_cycle;Max_cycle;Signal;HPM_P1;HPM_P2
2023/04/22 00:00:50;;;;;;;22.50;12.13;;;11.40;99.90;;;;;;5097947;28;20059;-88
2023/04/22 00:03:16;;;;;;;18.67;11.90;;;11.40;99.90;;;;;;5096338;28;20023;-89
2023/04/22 00:05:49;;;;;;;20.15;11.95;;;11.50;99.90;;;;;;5096245;28;20030;-88
2023/04/22 00:08:18;;;;;;;23.35;12.60;;;11.50;99.90;;;;;;5096339;28;20458;-89
2023/04/22 00:10:46;;;;;;;28.45;14.50;;;11.60;99.90;;;;;;5095968;28;20027;-88
2023/04/22 00:13:12;;;;;;;22.38;12.10;;;11.60;99.90;;;;;;5097264;28;20028;-88
2023/04/22 00:15:38;;;;;;;20.25;11.63;;;11.60;99.90;;;;;;5108601;28;20096;-89
2023/04/22 00:18:06;;;;;;;22.13;10.35;;;11.60;99.90;;;;;;5095693;28;20027;-88
2023/04/22 00:20:38;;;;;;;18.20;10.73;;;11.60;99.90;;;;;;5096129;28;20024;-88
2023/04/22 00:23:03;;;;;;;22.10;11.32;;;11.60;99.90;;;;;;5109200;28;20057;-88
2023/04/22 00:25:32;;;;;;;25.42;11.68;;;11.60;99.90;;;;;;5095866;28;20044;-87
2023/04/22 00:27:58;;;;;;;28.17;12.07;;;11.70;99.90;;;;;;5096565;28;20047;-87
2023/04/22 00:30:24;;;;;;;20.63;11.77;;;11.70;99.90;;;;;;5096065;28;20048;-88
2023/04/22 00:32:49;;;;;;;27.77;12.02;;;11.70;99.90;;;;;;5095894;28;20475;-88
2023/04/22 00:35:15;;;;;;;21.98;11.93;;;11.70;99.90;;;;;;5096941;28;20020;-87
2023/04/22 00:37:41;;;;;;;21.05;10.82;;;11.70;99.90;;;;;;5095934;28;20020;-88
2023/04/22 00:40:08;;;;;;;16.02;9.48;;;11.70;99.90;;;;;;5111347;28;20449;-88
2023/04/22 00:42:35;;;;;;;13.20;8.27;;;11.70;99.90;;;;;;5103774;28;20020;-88
2023/04/22 00:45:08;;;;;;;12.45;8.48;;;11.80;99.90;;;;;;5095494;28;20040;-88
2023/04/22 00:47:35;;;;;;;12.15;9.13;;;11.70;99.90;;;;;;5095673;28;20030;-88
2023/04/22 00:50:02;;;;;;;10.40;8.40;;;11.70;99.90;;;;;;5091330;28;20097;-88
2023/04/22 00:52:28;;;;;;;11.57;8.68;;;11.70;99.90;;;;;;5077197;28;20020;-88
2023/04/22 00:54:58;;;;;;;13.55;8.63;;;11.70;99.90;;;;;;5095779;28;20039;-89
2023/04/22 00:57:30;;;;;;;10.23;8.60;;;11.70;99.90;;;;;;5076080;28;20039;-88
2023/04/22 00:59:59;;;;;;;10.52;7.93;;;11.80;99.90;;;;;;5075268;28;20016;-88
2023/04/22 01:02:55;;;;;;;12.18;8.23;;;11.70;99.90;;;;;;5097883;28;20522;-88
2023/04/22 01:05:22;;;;;;;9.98;8.18;;;11.70;99.90;;;;;;5094880;28;20026;-87
2023/04/22 01:07:51;;;;;;;14.02;7.85;;;11.70;99.90;;;;;;5097056;28;20055;-89
2023/04/22 01:10:21;;;;;;;10.25;8.70;;;11.80;99.90;;;;;;5092499;28;20028;-88
2023/04/22 01:12:46;;;;;;;10.98;8.43;;;11.70;99.90;;;;;;5096444;28;20028;-87
2023/04/22 01:15:12;;;;;;;9.45;8.45;;;11.80;99.90;;;;;;5092187;28;20032;-88
2023/04/22 01:17:38;;;;;;;11.70;8.90;;;11.80;99.90;;;;;;5095504;28;20425;-87
2023/04/22 01:20:10;;;;;;;10.80;8.13;;;11.80;99.90;;;;;;5094770;28;20054;-88
2023/04/22 01:22:41;;;;;;;11.02;8.32;;;11.80;99.90;;;;;;5096339;28;20066;-87
2023/04/22 01:25:11;;;;;;;14.05;8.32;;;11.80;99.90;;;;;;5091542;28;20077;-88
2023/04/22 01:27:38;;;;;;;12.68;8.57;;;11.90;99.90;;;;;;5094550;28;20024;-87
2023/04/22 01:30:05;;;;;;;12.48;8.13;;;11.90;99.90;;;;;;5094340;28;20024;-88
2023/04/22 01:32:31;;;;;;;15.63;8.40;;;11.90;99.90;;;;;;5096461;28;20114;-87
2023/04/22 01:35:00;;;;;;;16.10;9.25;;;11.90;99.90;;;;;;5094568;28;20024;-88
2023/04/22 01:38:02;;;;;;;;;;;;;;;;;;;;;
2023/04/22 01:40:54;;;;;;;9.65;8.05;;;11.90;99.90;;;;;;5081596;28;20042;-89
2023/04/22 01:43:25;;;;;;;11.02;9.57;;;12.00;99.90;;;;;;5011836;28;20030;-89
2023/04/22 01:46:02;;;;;;;13.80;8.73;;;12.10;99.90;;;;;;5011502;28;20034;-90
2023/04/22 01:48:31;;;;;;;14.50;8.65;;;12.10;99.90;;;;;;4996976;28;20030;-90
2023/04/22 01:51:06;;;;;;;12.02;9.32;;;12.10;99.90;;;;;;4996329;28;20124;-90
2023/04/22 01:53:35;;;;;;;14.93;9.45;;;12.20;99.90;;;;;;4999266;28;20036;-89
2023/04/22 01:56:33;;;;;;;16.08;9.25;;;12.20;99.90;;;;;;4998420;28;20058;-90
2023/04/22 01:59:29;;;;;;;11.70;8.45;;;12.10;99.90;;;;;;4934773;29;20388;-90
2023/04/22 02:02:11;;;;;;;12.98;8.50;;;12.10;99.90;;;;;;4936021;29;20032;-90
2023/04/22 02:04:51;;;;;;;15.15;8.85;;;12.10;99.90;;;;;;4920355;29;20046;-89
2023/04/22 02:07:31;;;;;;;18.48;10.80;;;12.10;99.90;;;;;;4964719;28;20504;-90
2023/04/22 02:10:08;;;;;;;18.73;9.63;;;12.10;99.90;;;;;;4977353;28;20030;-90
2023/04/22 02:13:02;;;;;;;;;;;;;;;;;;;;;
2023/04/22 02:15:31;;;;;;;13.15;7.47;;;12.20;99.90;;;;;;4993186;28;20371;-90
2023/04/22 02:17:57;;;;;;;11.93;7.55;;;12.20;99.90;;;;;;4993130;28;20038;-89
2023/04/22 02:20:37;;;;;;;8.88;6.63;;;12.10;99.90;;;;;;4982752;28;20089;-89
2023/04/22 02:25:57;;;;;;;13.43;7.20;;;12.20;99.90;;;;;;4973844;28;20382;-89
2023/04/22 02:28:24;;;;;;;14.95;7.07;;;12.20;99.90;;;;;;4964562;28;20046;-89
2023/04/22 02:30:53;;;;;;;11.52;6.60;;;12.20;99.90;;;;;;4972688;28;20035;-89
2023/04/22 02:33:26;;;;;;;9.52;6.88;;;12.20;99.90;;;;;;4959256;28;20026;-88
2023/04/22 02:35:52;;;;;;;10.30;6.95;;;12.20;99.90;;;;;;5036497;28;20119;-89
2023/04/22 02:38:18;;;;;;;11.40;6.50;;;12.10;99.90;;;;;;5072075;28;20119;-88
2023/04/22 02:40:44;;;;;;;7.93;5.82;;;12.10;99.90;;;;;;5089166;28;20042;-88
2023/04/22 02:43:13;;;;;;;9.18;6.07;;;12.10;99.90;;;;;;5106334;28;20036;-90
2023/04/22 02:45:42;;;;;;;16.33;6.30;;;12.10;99.90;;;;;;5081113;28;20020;-90
2023/04/22 02:48:08;;;;;;;7.90;6.45;;;12.10;99.90;;;;;;5080649;28;20020;-89
2023/04/22 02:50:42;;;;;;;9.93;6.57;;;12.00;99.90;;;;;;5087402;28;20086;-89
2023/04/22 02:53:11;;;;;;;12.27;6.57;;;12.00;99.90;;;;;;5078764;28;20028;-89
2023/04/22 02:56:01;;;;;;;12.57;6.60;;;12.00;99.90;;;;;;5095338;28;20031;-89
2023/04/22 02:58:42;;;;;;;14.43;7.25;;;12.00;99.90;;;;;;5085167;28;20086;-88
2023/04/22 03:01:22;;;;;;;12.45;6.78;;;12.00;99.90;;;;;;5077143;28;20020;-90
2023/04/22 03:03:48;;;;;;;7.03;6.32;;;12.00;99.90;;;;;;5071439;28;20448;-88
2023/04/22 03:06:17;;;;;;;8.60;6.35;;;11.90;99.90;;;;;;5072228;28;20502;-88
2023/04/22 03:08:43;;;;;;;8.00;6.63;;;11.90;99.90;;;;;;5073121;28;20078;-88
2023/04/22 03:11:09;;;;;;;8.60;7.00;;;11.80;99.90;;;;;;5072886;28;20403;-89
2023/04/22 03:13:35;;;;;;;8.40;6.70;;;11.80;99.90;;;;;;5072722;28;20028;-89
2023/04/22 03:16:17;;;;;;;9.40;6.85;;;11.80;99.90;;;;;;5072621;28;20060;-90
2023/04/22 03:18:52;;;;;;;9.30;7.45;;;11.80;99.90;;;;;;5074311;28;20032;-90
2023/04/22 03:21:18;;;;;;;8.65;7.20;;;11.80;99.90;;;;;;5077936;28;20027;-89
2023/04/22 03:24:11;;;;;;;7.88;7.03;;;11.80;99.90;;;;;;5091640;28;20024;-90
2023/04/22 03:26:40;;;;;;;9.45;6.80;;;11.80;99.90;;;;;;5072763;28;20029;-90
2023/04/22 03:29:08;;;;;;;7.65;6.82;;;11.70;99.90;;;;;;5072955;28;20363;-90
2023/04/22 03:31:55;;;;;;;10.90;7.97;;;11.70;99.90;;;;;;5053518;28;20032;-90
2023/04/22 03:34:23;;;;;;;7.97;7.20;;;11.70;99.90;;;;;;5076668;28;20030;-90
2023/04/22 03:36:49;;;;;;;8.40;7.55;;;11.70;99.90;;;;;;5077072;28;20360;-89
2023/04/22 03:39:20;;;;;;;9.07;7.63;;;11.70;99.90;;;;;;5091303;28;20505;-89
2023/04/22 03:41:46;;;;;;;9.65;8.05;;;11.70;99.90;;;;;;5084971;28;20020;-89
2023/04/22 03:44:12;;;;;;;12.10;7.05;;;11.70;99.90;;;;;;5076706;28;20031;-89
2023/04/22 03:46:38;;;;;;;9.82;7.15;;;11.70;99.90;;;;;;5076578;28;20021;-89
2023/04/22 03:49:18;;;;;;;10.13;6.28;;;11.70;99.90;;;;;;5075815;28;20585;-91
2023/04/22 03:51:44;;;;;;;9.93;7.57;;;11.70;99.90;;;;;;5071163;28;20059;-90
2023/04/22 03:54:10;;;;;;;13.02;7.00;;;11.60;99.90;;;;;;5076530;28;20063;-88
2023/04/22 03:56:46;;;;;;;11.73;7.30;;;11.70;99.90;;;;;;5076234;28;20044;-90
2023/04/22 03:59:11;;;;;;;8.07;7.28;;;11.70;99.90;;;;;;5076663;28;20033;-87
2023/04/22 04:01:39;;;;;;;11.15;7.00;;;11.70;99.90;;;;;;5076459;28;20085;-89
2023/04/22 04:04:11;;;;;;;8.57;7.28;;;11.60;99.90;;;;;;5076570;28;20025;-90
2023/04/22 04:06:37;;;;;;;;;;;11.70;99.90;;;;;;5076789;28;20028;-89
2023/04/22 04:09:05;;;;;;;12.77;7.47;;;11.70;99.90;;;;;;5065524;28;19908;-90
2023/04/22 04:11:31;;;;;;;8.82;7.10;;;11.70;99.90;;;;;;5066773;28;20048;-88
2023/04/22 04:14:26;;;;;;;7.40;6.60;;;11.60;99.90;;;;;;5076281;28;20374;-90
2023/04/22 04:17:22;;;;;;;;;;;;;;;;;;;;;
2023/04/22 04:19:48;;;;;;;8.43;7.20;;;11.70;99.90;;;;;;5106712;28;20507;-88
2023/04/22 04:22:14;;;;;;;12.23;7.30;;;11.70;99.90;;;;;;5097981;28;20114;-88
2023/04/22 04:24:40;;;;;;;12.55;7.47;;;11.70;99.90;;;;;;5095795;28;20116;-88
2023/04/22 04:27:07;;;;;;;11.98;7.90;;;11.70;99.90;;;;;;5095943;28;20032;-88
2023/04/22 04:29:34;;;;;;;8.20;7.25;;;11.70;99.90;;;;;;5102161;28;20046;-86
2023/04/22 04:32:03;;;;;;;9.90;7.40;;;11.70;99.90;;;;;;5095742;28;20028;-89
2023/04/22 04:35:22;;;;;;;12.63;7.55;;;11.60;99.90;;;;;;5095543;28;20016;-88
2023/04/22 04:38:14;;;;;;;9.13;6.88;;;11.60;99.90;;;;;;5043018;28;20048;-89
2023/04/22 04:40:42;;;;;;;;;;;11.70;99.90;;;;;;5037203;28;20024;-88
2023/04/22 04:43:45;;;;;;;7.85;7.13;;;11.80;99.90;;;;;;5042652;28;19911;-87
2023/04/22 04:46:50;;;;;;;9.63;7.20;;;11.70;99.90;;;;;;4972360;28;20042;-88
2023/04/22 04:49:38;;;;;;;8.10;6.30;;;11.90;99.90;;;;;;4970061;28;20035;-89
2023/04/22 05:03:07;;;;;;;9.25;7.22;;;12.20;99.90;;;;;;4959621;28;20025;-89
2023/04/22 05:05:42;;;;;;;19.30;7.30;;;12.30;99.90;;;;;;4977640;28;20031;-89
2023/04/22 05:19:04;;;;;;;9.10;6.90;;;12.60;99.90;;;;;;4994738;28;20045;-87
2023/04/22 05:29:33;;;;;;;10.25;6.50;;;12.70;99.90;;;;;;5010349;28;20029;-90
2023/04/22 05:32:52;;;;;;;10.40;7.47;;;12.80;99.90;;;;;;5013663;28;20057;-89
2023/04/22 05:35:27;;;;;;;9.65;7.05;;;13.00;99.90;;;;;;4996629;28;20046;-89
2023/04/22 05:38:16;;;;;;;8.60;7.25;;;13.00;99.90;;;;;;5017440;28;20112;-88
2023/04/22 05:40:44;;;;;;;12.02;6.88;;;13.00;99.90;;;;;;5013711;28;20040;-87
2023/04/22 05:43:13;;;;;;;11.45;6.97;;;13.00;99.90;;;;;;5016604;28;20037;-89
2023/04/22 05:46:39;;;;;;;8.23;6.28;;;13.10;99.90;;;;;;4999860;28;20060;-91
2023/04/22 05:52:30;;;;;;;16.33;7.47;;;13.20;99.90;;;;;;5056490;28;20367;-91
2023/04/22 05:55:46;;;;;;;10.65;6.60;;;13.30;99.90;;;;;;5055919;28;20029;-89
2023/04/22 06:01:41;;;;;;;10.27;7.50;;;13.40;99.90;;;;;;5040462;28;20029;-85
2023/04/22 06:04:10;;;;;;;7.95;6.93;;;13.50;99.90;;;;;;5016624;28;20034;-86
2023/04/22 06:07:23;;;;;;;9.18;7.78;;;13.50;99.90;;;;;;5021479;28;20033;-86
2023/04/22 06:09:57;;;;;;;10.20;7.30;;;13.50;99.90;;;;;;5043302;28;20410;-88
2023/04/22 06:12:46;;;;;;;7.40;6.55;;;13.60;99.90;;;;;;5016183;28;20025;-86
2023/04/22 06:15:37;;;;;;;10.13;6.55;;;13.70;99.90;;;;;;5039100;28;20481;-85
2023/04/22 06:18:05;;;;;;;7.03;6.43;;;13.80;99.90;;;;;;4949933;29;20043;-86
2023/04/22 06:20:46;;;;;;;12.27;7.75;;;13.90;99.90;;;;;;4958529;28;20825;-87
2023/04/22 06:23:35;;;;;;;10.50;7.15;;;14.00;99.90;;;;;;4957834;28;20031;-87
2023/04/22 06:26:04;;;;;;;14.07;7.55;;;14.10;99.90;;;;;;4938517;28;20051;-87
2023/04/22 06:28:30;;;;;;;12.45;6.78;;;14.10;99.90;;;;;;4977537;28;20034;-84
2023/04/22 06:30:56;;;;;;;12.20;7.03;;;14.20;99.90;;;;;;4976676;28;20023;-84
2023/04/22 06:33:21;;;;;;;13.35;6.95;;;14.30;99.90;;;;;;4975977;28;20022;-85
2023/04/22 06:35:47;;;;;;;11.98;7.03;;;14.50;99.90;;;;;;4990152;28;20042;-86
2023/04/22 06:38:13;;;;;;;8.50;6.28;;;14.70;99.90;;;;;;4988024;28;20030;-85
2023/04/22 06:40:39;;;;;;;7.60;6.70;;;14.90;99.90;;;;;;4995607;28;20041;-83
2023/04/22 06:43:05;;;;;;;12.20;6.90;;;14.90;99.90;;;;;;4996012;28;20072;-85
2023/04/22 06:45:30;;;;;;;9.93;6.82;;;15.10;99.90;;;;;;4995800;28;20022;-83
2023/04/22 06:47:56;;;;;;;8.57;7.32;;;15.20;99.90;;;;;;4995715;28;20431;-84
2023/04/22 06:50:22;;;;;;;9.93;7.15;;;15.30;99.90;;;;;;4995857;28;20026;-86
2023/04/22 06:52:48;;;;;;;7.53;6.80;;;15.20;99.90;;;;;;5012244;28;20037;-85
2023/04/22 06:55:14;;;;;;;13.23;7.22;;;15.40;99.80;;;;;;5102650;28;20032;-82
2023/04/22 06:57:39;;;;;;;13.15;6.65;;;15.40;99.60;;;;;;5113272;28;20350;-83
2023/04/22 07:00:11;;;;;;;8.85;6.70;;;15.60;99.90;;;;;;5106074;28;20114;-84
2023/04/22 07:02:37;;;;;;;;;;;15.90;99.90;;;;;;5098127;28;20065;-84
2023/04/22 07:05:14;;;;;;;10.57;7.28;;;16.00;98.90;;;;;;5111296;28;19899;-83
2023/04/22 07:07:40;;;;;;;12.98;7.10;;;16.10;98.00;;;;;;5092329;28;20178;-85
2023/04/22 07:10:06;;;;;;;10.38;7.50;;;16.10;98.10;;;;;;5092964;28;20114;-84
2023/04/22 07:12:32;;;;;;;11.27;7.28;;;16.30;97.90;;;;;;5092759;28;20111;-84
2023/04/22 07:14:58;;;;;;;7.47;6.40;;;16.50;96.90;;;;;;5106975;28;20190;-82
2023/04/22 07:17:25;;;;;;;10.52;6.57;;;16.60;95.10;;;;;;5112488;28;20051;-82
2023/04/22 07:23:06;;;;;;;10.15;6.80;;;17.10;93.10;;;;;;5102406;28;20407;-83
2023/04/22 07:25:34;;;;;;;9.75;7.65;;;17.10;91.00;;;;;;5103824;28;20035;-85
2023/04/22 07:28:00;;;;;;;11.52;6.53;;;17.10;92.70;;;;;;5099361;28;20077;-84
2023/04/22 07:30:26;;;;;;;7.55;6.80;;;17.30;91.80;;;;;;5109479;28;20020;-86
2023/04/22 07:33:00;;;;;;;7.97;6.78;;;17.50;91.10;;;;;;5092671;28;20442;-87
2023/04/22 07:35:27;;;;;;;10.77;6.95;;;17.60;90.10;;;;;;5071953;28;20013;-83
2023/04/22 07:38:05;;;;;;;8.40;7.38;;;17.70;90.00;;;;;;5111239;28;20022;-83
2023/04/22 07:40:31;;;;;;;8.05;6.85;;;17.90;85.90;;;;;;5112974;28;20016;-85
2023/04/22 07:42:57;;;;;;;9.95;7.57;;;18.10;88.50;;;;;;5112612;28;20051;-84
2023/04/22 07:45:22;;;;;;;9.88;7.78;;;18.00;79.50;;;;;;5112726;28;20062;-81
2023/04/22 07:47:48;;;;;;;9.05;7.15;;;18.30;83.00;;;;;;5110499;28;20034;-82
2023/04/22 07:50:14;;;;;;;11.50;8.77;;;18.40;78.80;;;;;;5112405;28;20020;-82
2023/04/22 07:52:40;;;;;;;7.72;6.93;;;18.40;76.30;;;;;;5105097;28;20016;-86
2023/04/22 07:55:09;;;;;;;9.38;7.55;;;18.60;78.30;;;;;;5092312;28;20035;-86
2023/04/22 07:57:38;;;;;;;8.10;7.40;;;18.90;77.50;;;;;;5111826;28;20054;-83
2023/04/22 08:00:09;;;;;;;8.18;7.10;;;19.00;73.60;;;;;;5110215;28;20019;-84
2023/04/22 08:02:34;;;;;;;9.10;7.95;;;19.00;72.50;;;;;;5112742;28;20361;-83
2023/04/22 08:05:00;;;;;;;13.65;7.97;;;19.10;72.50;;;;;;5112247;28;20441;-83
2023/04/22 08:07:27;;;;;;;10.57;8.52;;;19.50;76.40;;;;;;5112647;28;20031;-83
2023/04/22 08:09:55;;;;;;;8.07;7.38;;;19.80;89.20;;;;;;5107468;28;20108;-83
2023/04/22 08:12:21;;;;;;;11.32;7.90;;;19.70;70.10;;;;;;5094383;28;20107;-81
2023/04/22 08:14:47;;;;;;;12.07;7.43;;;19.80;66.80;;;;;;5112891;28;20124;-84
2023/04/22 08:17:13;;;;;;;10.00;7.82;;;19.90;67.40;;;;;;5111978;28;20533;-83
2023/04/22 08:19:41;;;;;;;8.63;7.38;;;20.10;85.70;;;;;;5115017;28;20050;-85
2023/04/22 08:22:07;;;;;;;7.78;7.00;;;20.30;65.40;;;;;;5102096;28;20027;-87
2023/04/22 08:24:33;;;;;;;10.20;6.55;;;20.50;60.90;;;;;;5095892;28;20031;-83
2023/04/22 08:26:59;;;;;;;13.90;7.03;;;20.60;58.30;;;;;;5095946;28;20417;-82
2023/04/22 08:29:25;;;;;;;8.00;7.20;;;21.00;59.40;;;;;;5095802;28;20107;-82
2023/04/22 08:31:51;;;;;;;7.65;6.38;;;21.00;56.90;;;;;;5095509;28;20115;-83
2023/04/22 08:34:16;;;;;;;7.93;7.03;;;21.10;54.70;;;;;;5095808;28;20069;-84
2023/04/22 08:36:42;;;;;;;8.30;7.50;;;21.30;56.30;;;;;;5114572;28;20049;-85
2023/04/22 08:39:14;;;;;;;9.23;7.88;;;21.20;56.10;;;;;;5115912;28;20066;-86
2023/04/22 08:41:49;;;;;;;8.50;7.78;;;21.40;60.40;;;;;;5116272;28;20472;-83
2023/04/22 08:44:16;;;;;;;7.72;7.03;;;21.50;56.00;;;;;;5115880;28;20076;-84
2023/04/22 08:46:55;;;;;;;;;;;;;;;;;;;;;
2023/04/22 08:49:24;;;;;;;7.55;6.95;;;22.10;52.50;;;;;;5104154;28;20392;-86
2023/04/22 08:51:52;;;;;;;8.52;7.63;;;22.30;52.50;;;;;;5111061;28;20026;-85
2023/04/22 08:54:18;;;;;;;7.00;6.30;;;22.30;49.90;;;;;;5112121;28;20024;-86
2023/04/22 08:56:44;;;;;;;7.72;7.03;;;22.30;51.70;;;;;;5094879;28;20373;-85
2023/04/22 08:59:11;;;;;;;7.18;6.55;;;22.20;49.70;;;;;;5114441;28;20035;-86
2023/04/22 09:01:39;;;;;;;7.97;6.38;;;22.40;50.40;;;;;;5115558;28;20026;-84
2023/04/22 09:04:06;;;;;;;6.63;6.13;;;22.40;48.20;;;;;;5115391;28;20024;-83
2023/04/22 09:06:32;;;;;;;8.10;6.10;;;22.60;45.50;;;;;;5115028;28;20031;-85
2023/04/22 09:08:59;;;;;;;8.05;6.90;;;22.80;44.70;;;;;;5115082;28;20027;-83
2023/04/22 09:11:44;;;;;;;6.07;5.57;;;22.90;42.70;;;;;;5115311;28;20031;-85
2023/04/22 09:14:16;;;;;;;7.28;6.68;;;22.90;44.20;;;;;;5115032;28;20518;-85
2023/04/22 09:16:49;;;;;;;7.85;7.00;;;22.70;43.50;;;;;;5112967;28;20043;-85
2023/04/22 09:19:15;;;;;;;7.40;6.80;;;23.00;44.50;;;;;;5096479;28;20447;-83
2023/04/22 09:21:41;;;;;;;10.27;7.43;;;23.10;43.20;;;;;;5074360;28;20027;-86
2023/04/22 09:24:08;;;;;;;7.97;6.72;;;23.30;42.60;;;;;;5108504;28;20100;-84
2023/04/22 09:26:39;;;;;;;7.20;6.60;;;23.30;42.10;;;;;;5115075;28;20028;-85
2023/04/22 09:29:08;;;;;;;8.88;6.65;;;23.40;45.30;;;;;;5115028;28;20046;-83
2023/04/22 09:31:36;;;;;;;7.80;7.05;;;23.10;44.90;;;;;;5114802;28;20030;-85
2023/04/22 09:34:05;;;;;;;7.45;6.72;;;23.50;42.50;;;;;;5114550;28;20122;-86
2023/04/22 09:36:39;;;;;;;15.40;7.28;;;23.60;42.30;;;;;;5114631;28;20088;-84
2023/04/22 09:39:07;;;;;;;7.55;6.80;;;23.90;43.50;;;;;;5115020;28;20088;-85
2023/04/22 09:41:34;;;;;;;9.98;6.75;;;23.80;39.40;;;;;;5114164;28;20036;-85
2023/04/22 09:44:02;;;;;;;7.57;6.88;;;23.90;40.00;;;;;;5095078;28;20024;-83
2023/04/22 09:46:30;;;;;;;8.38;6.55;;;24.10;39.30;;;;;;5110711;28;20418;-84
2023/04/22 09:48:57;;;;;;;7.10;6.40;;;24.10;41.20;;;;;;5107689;28;20024;-84
2023/04/22 09:51:27;;;;;;;7.82;6.72;;;24.40;40.40;;;;;;5114549;28;20021;-84
2023/04/22 09:54:10;;;;;;;6.53;6.03;;;24.40;40.00;;;;;;5114598;28;20027;-85
2023/04/22 09:56:47;;;;;;;7.15;6.55;;;;;;;;;;5114103;28;20101;-84
2023/04/22 09:59:13;;;;;;;6.38;5.82;;;;;;;;;;5108470;28;20020;-83
2023/04/22 10:01:40;;;;;;;6.13;5.63;;;;;;;;;;5111037;28;20157;-83
2023/04/22 10:04:14;;;;;;;6.72;6.15;;;24.40;29.20;;;;;;5093618;28;20106;-86
2023/04/22 10:06:43;;;;;;;6.38;5.78;;;;;;;;;;5093765;28;20038;-85
2023/04/22 10:09:19;;;;;;;;;;;;;;;;;;;;;
2023/04/22 10:11:46;;;;;;;7.80;7.10;;;;;;;;;;5095098;28;20034;-84
2023/04/22 10:14:15;;;;;;;7.70;6.80;;;;;;;;;;5093666;28;20469;-85
2023/04/22 10:16:43;;;;;;;6.63;6.13;;;;;;;;;;5093127;28;20044;-85
2023/04/22 10:19:14;;;;;;;7.13;6.50;;;;;;;;;;5093698;28;20020;-85
2023/04/22 10:21:54;;;;;;;7.90;6.07;;;;;;;;;;5094267;28;20445;-85
2023/04/22 10:24:21;;;;;;;6.35;5.75;;;;;;;;;;5093099;28;20024;-85
2023/04/22 10:26:51;;;;;;;6.43;5.93;;;;;;;;;;5093696;28;20392;-85
2023/04/22 10:29:19;;;;;;;6.70;6.10;;;;;;;;;;5093417;28;20036;-84
2023/04/22 10:31:57;;;;;;;6.85;6.25;;;;;;;;;;5089866;28;20096;-85
2023/04/22 10:34:23;;;;;;;7.40;6.90;;;;;;;;;;5109064;28;20035;-83
2023/04/22 10:37:02;;;;;;;6.47;5.97;;;24.40;28.50;;;;;;5110042;28;20028;-85
2023/04/22 10:39:28;;;;;;;6.25;5.78;;;24.10;26.20;;;;;;5110061;28;20035;-82
2023/04/22 10:42:09;;;;;;;6.75;6.15;;;;;;;;;;5094277;28;20024;-85
2023/04/22 10:44:55;;;;;;;6.97;6.30;;;;;;;;;;5092870;28;20020;-83
2023/04/22 10:47:25;;;;;;;7.38;6.72;;;;;;;;;;5093160;28;20031;-86
2023/04/22 10:49:51;;;;;;;6.10;5.60;;;;;;;;;;5093117;28;20030;-84
2023/04/22 10:52:28;;;;;;;6.55;6.05;;;;;;;;;;5091688;28;20041;-84
2023/04/22 10:54:54;;;;;;;6.45;5.85;;;;;;;;;;5085795;28;20027;-85
2023/04/22 10:57:21;;;;;;;6.30;5.70;;;;;;;;;;5114244;28;20035;-83
2023/04/22 10:59:48;;;;;;;6.63;6.13;;;;;;;;;;5096074;28;20012;-83
2023/04/22 11:02:15;;;;;;;6.65;6.05;;;;;;;;;;5111618;28;20464;-84
2023/04/22 11:04:42;;;;;;;6.45;5.95;;;;;;;;;;5114335;28;20022;-83
2023/04/22 11:07:16;;;;;;;7.50;6.55;;;;;;;;;;5113050;28;20027;-84
2023/04/22 11:09:49;;;;;;;6.30;5.80;;;;;;;;;;5113189;28;20051;-84
2023/04/22 11:12:34;;;;;;;6.95;6.25;;;;;;;;;;5101089;28;20107;-86
2023/04/22 11:15:10;;;;;;;7.05;6.55;;;;;;;;;;5113527;28;20415;-85
2023/04/22 11:17:37;;;;;;;6.50;6.00;;;;;;;;;;5112979;28;20035;-84
2023/04/22 11:20:04;;;;;;;6.88;5.95;;;;;;;;;;5111084;28;20015;-82
2023/04/22 11:22:36;;;;;;;7.47;6.78;;;;;;;;;;5092632;28;20050;-86
2023/04/22 11:25:03;;;;;;;6.90;6.38;;;;;;;;;;5089470;28;20016;-85
2023/04/22 11:27:29;;;;;;;7.53;6.65;;;;;;;;;;5091278;28;20030;-86
2023/04/22 11:30:09;;;;;;;7.78;7.10;;;;;;;;;;5092678;28;20112;-85
2023/04/22 11:32:40;;;;;;;8.05;7.35;;;;;;;;;;5092795;28;20020;-87
2023/04/22 11:35:10;;;;;;;6.90;6.40;;;;;;;;;;5092618;28;20077;-85
2023/04/22 11:37:43;;;;;;;7.18;6.50;;;;;;;;;;5091873;28;20471;-85
2023/04/22 11:40:10;;;;;;;6.45;5.88;;;;;;;;;;5092121;28;20032;-84
2023/04/22 11:42:36;;;;;;;6.55;5.95;;;25.00;25.50;;;;;;5092738;28;20358;-86
2023/04/22 11:45:03;;;;;;;6.82;6.28;;;24.50;26.70;;;;;;5092296;28;20110;-85
2023/04/22 11:47:30;;;;;;;6.35;5.80;;;24.10;26.20;;;;;;5092409;28;20028;-85
2023/04/22 11:49:58;;;;;;;9.35;6.75;;;23.70;28.00;;;;;;5110682;28;20033;-85
2023/04/22 11:52:25;;;;;;;7.25;6.55;;;23.60;28.30;;;;;;5112823;28;20051;-84
2023/04/22 11:54:51;;;;;;;6.47;5.97;;;23.30;28.20;;;;;;5116431;28;20028;-83
2023/04/22 11:57:20;;;;;;;6.53;6.00;;;23.30;28.10;;;;;;5116630;28;20461;-84
2023/04/22 11:59:57;;;;;;;6.63;6.13;;;23.00;28.40;;;;;;5101280;28;20409;-85
2023/04/22 12:02:23;;;;;;;6.93;6.30;;;22.80;31.00;;;;;;5097260;28;20077;-84
2023/04/22 12:04:49;;;;;;;7.07;6.50;;;22.60;29.60;;;;;;5096177;28;20512;-84
2023/04/22 12:07:15;;;;;;;7.38;6.70;;;22.50;31.20;;;;;;5096233;28;20020;-84
2023/04/22 12:09:41;;;;;;;7.18;6.60;;;22.40;31.60;;;;;;5097136;28;20039;-84
2023/04/22 12:12:06;;;;;;;7.30;6.70;;;22.10;30.50;;;;;;5097424;28;20028;-85
2023/04/22 12:14:36;;;;;;;6.75;6.03;;;22.00;32.10;;;;;;5096380;28;20045;-84
2023/04/22 12:17:08;;;;;;;6.40;5.82;;;22.00;33.40;;;;;;5097027;28;20573;-85
2023/04/22 12:19:34;;;;;;;6.88;6.00;;;21.90;33.70;;;;;;5095960;28;20423;-83
2023/04/22 12:21:59;;;;;;;7.28;6.60;;;21.80;32.00;;;;;;5097108;28;20028;-85
2023/04/22 12:24:29;;;;;;;7.60;6.90;;;21.60;31.80;;;;;;5095383;28;20020;-84
2023/04/22 12:26:55;;;;;;;7.05;6.35;;;21.30;34.70;;;;;;5095486;28;20459;-84
2023/04/22 12:29:32;;;;;;;7.07;6.43;;;21.30;36.10;;;;;;5108419;28;20028;-84
2023/04/22 12:31:59;;;;;;;6.68;6.07;;;21.10;36.80;;;;;;5128268;27;20028;-82
2023/04/22 12:34:25;;;;;;;6.60;6.00;;;21.10;38.40;;;;;;5096854;28;20103;-83
2023/04/22 12:36:51;;;;;;;7.20;6.45;;;21.00;36.80;;;;;;5094835;28;20126;-82
2023/04/22 12:39:17;;;;;;;9.00;7.03;;;21.00;37.00;;;;;;5104743;28;20019;-83
2023/04/22 12:41:43;;;;;;;7.10;6.40;;;21.10;38.00;;;;;;5117034;28;20024;-84
2023/04/22 12:44:09;;;;;;;9.07;6.50;;;21.30;36.70;;;;;;5099502;28;20072;-81
2023/04/22 12:46:35;;;;;;;7.00;6.30;;;21.70;36.40;;;;;;5096582;28;20016;-83
2023/04/22 12:49:01;;;;;;;6.75;6.22;;;21.90;34.90;;;;;;5096755;28;20366;-83
2023/04/22 12:51:26;;;;;;;6.72;6.13;;;21.70;34.20;;;;;;5094871;28;20024;-83
2023/04/22 12:53:52;;;;;;;7.07;6.38;;;21.70;32.70;;;;;;5096094;28;20353;-84
2023/04/22 12:56:18;;;;;;;6.82;6.13;;;21.70;35.70;;;;;;5099859;28;20032;-84
2023/04/22 12:58:44;;;;;;;7.35;6.78;;;21.60;35.70;;;;;;5094965;28;20032;-85
2023/04/22 13:01:10;;;;;;;7.18;6.63;;;21.60;35.70;;;;;;5094172;28;20030;-86
2023/04/22 13:03:39;;;;;;;6.68;6.07;;;21.50;36.80;;;;;;5095144;28;20047;-87
2023/04/22 13:06:06;;;;;;;8.82;7.93;;;21.60;35.90;;;;;;5095343;28;20026;-83
2023/04/22 13:08:32;;;;;;;9.93;8.68;;;22.00;36.00;;;;;;5095006;28;20016;-83
2023/04/22 13:10:59;;;;;;;7.70;6.90;;;22.60;35.20;;;;;;5102702;28;20031;-84
2023/04/22 13:13:24;;;;;;;7.50;6.80;;;23.30;35.60;;;;;;5101027;28;20114;-83
2023/04/22 13:15:52;;;;;;;7.70;7.00;;;24.00;32.90;;;;;;5092741;28;20132;-83
2023/04/22 13:18:19;;;;;;;7.72;7.03;;;;;;;;;;5094285;28;20024;-83
2023/04/22 13:20:46;;;;;;;6.95;6.45;;;;;;;;;;5099765;28;20335;-83
2023/04/22 13:23:13;;;;;;;6.22;5.68;;;;;;;;;;5116808;28;20012;-82
2023/04/22 13:25:43;;;;;;;6.50;6.00;;;;;;;;;;5090284;28;20016;-88
2023/04/22 13:28:10;;;;;;;6.95;6.45;;;;;;;;;;5094479;28;20020;-84
2023/04/22 13:30:36;;;;;;;7.50;6.80;;;;;;;;;;5094038;28;20016;-85
2023/04/22 13:35:46;;;;;;;6.70;6.20;;;;;;;;;;5102985;28;20039;-86
2023/04/22 13:38:16;;;;;;;6.47;5.97;;;;;;;;;;5095132;28;20028;-87
2023/04/22 13:40:43;;;;;;;7.20;6.70;;;;;;;;;;5093804;28;20362;-84
2023/04/22 13:43:09;;;;;;;8.07;6.78;;;;;;;;;;5094073;28;20084;-84
2023/04/22 13:45:35;;;;;;;6.60;5.88;;;;;;;;;;5092631;28;20020;-82
2023/04/22 13:48:02;;;;;;;6.68;6.07;;;;;;;;;;5094020;28;20016;-85
2023/04/22 13:50:28;;;;;;;6.68;5.95;;;;;;;;;;5094133;28;20012;-82
2023/04/22 13:52:55;;;;;;;6.70;6.10;;;;;;;;;;5094553;28;20020;-82
2023/04/22 13:55:21;;;;;;;6.70;6.10;;;;;;;;;;5092598;28;20020;-85
2023/04/22 13:57:50;;;;;;;6.25;5.75;;;;;;;;;;5093040;28;20028;-85
2023/04/22 14:00:16;;;;;;;6.47;5.97;;;;;;;;;;5094166;28;20028;-84
2023/04/22 14:02:42;;;;;;;6.20;5.65;;;;;;;;;;5094774;28;20020;-84
2023/04/22 14:05:09;;;;;;;7.25;6.65;;;;;;;;;;5093563;28;20009;-84
2023/04/22 14:07:36;;;;;;;7.15;6.63;;;;;;;;;;5095250;28;20452;-85
2023/04/22 14:10:02;;;;;;;7.50;6.93;;;;;;;;;;5094751;28;20112;-85
2023/04/22 14:12:28;;;;;;;6.45;5.93;;;;;;;;;;5095590;28;20070;-86
2023/04/22 14:14:57;;;;;;;6.20;5.63;;;;;;;;;;5093855;28;20020;-86